sensor_id;sensor_type;location;lat;lon;timestamp;P1;durP1;ratioP1;P2;durP2;ratioP2
79702;SDS011;69172;52.352;5.006;2023-07-29T00:00:36;4.63;;;1.73;;
79702;SDS011;69172;52.352;5.006;2023-07-29T00:03:02;9.52;;;2.15;;
79702;SDS011;69172;52.352;5.006;2023-07-29T00:05:27;5.10;;;1.55;;
79702;SDS011;69172;52.352;5.006;2023-07-29T00:07:55;4.57;;;1.80;;
79702;SDS011;69172;52.352;5.006;2023-07-29T00:10:20;6.50;;;1.63;;
79702;SDS011;69172;52.352;5.006;2023-07-29T00:12:47;4.28;;;1.70;;
79702;SDS011;69172;52.352;5.006;2023-07-29T00:15:13;4.80;;;1.33;;
79702;SDS011;69172;52.352;5.006;2023-07-29T00:17:40;6.10;;;2.00;;
79702;SDS011;69172;52.352;5.006;2023-07-29T00:20:06;3.00;;;1.27;;
79702;SDS011;69172;52.352;5.006;2023-07-29T00:22:32;3.25;;;0.98;;
79702;SDS011;69172;52.352;5.006;2023-07-29T00:24:57;4.30;;;1.30;;
79702;SDS011;69172;52.352;5.006;2023-07-29T00:27:24;4.30;;;1.15;;
79702;SDS011;69172;52.352;5.006;2023-07-29T00:29:49;5.38;;;1.40;;
79702;SDS011;69172;52.352;5.006;2023-07-29T00:32:15;3.80;;;1.30;;
79702;SDS011;69172;52.352;5.006;2023-07-29T00:34:40;7.85;;;1.77;;
79702;SDS011;69172;52.352;5.006;2023-07-29T00:37:06;4.88;;;1.30;;
79702;SDS011;69172;52.352;5.006;2023-07-29T00:39:31;6.15;;;1.70;;
79702;SDS011;69172;52.352;5.006;2023-07-29T00:41:57;3.15;;;1.10;;
79702;SDS011;69172;52.352;5.006;2023-07-29T00:44:23;4.75;;;1.50;;
79702;SDS011;69172;52.352;5.006;2023-07-29T00:46:49;5.97;;;1.60;;
79702;SDS011;69172;52.352;5.006;2023-07-29T00:49:17;4.97;;;1.33;;
79702;SDS011;69172;52.352;5.006;2023-07-29T00:51:42;5.07;;;1.77;;
79702;SDS011;69172;52.352;5.006;2023-07-29T00:54:08;4.63;;;1.30;;
79702;SDS011;69172;52.352;5.006;2023-07-29T00:56:33;5.80;;;1.48;;
79702;SDS011;69172;52.352;5.006;2023-07-29T00:58:59;4.40;;;1.48;;
79702;SDS011;69172;52.352;5.006;2023-07-29T01:01:29;8.02;;;1.50;;
79702;SDS011;69172;52.352;5.006;2023-07-29T01:03:56;5.43;;;1.45;;
79702;SDS011;69172;52.352;5.006;2023-07-29T01:09:14;3.55;;;1.30;;
79702;SDS011;69172;52.352;5.006;2023-07-29T01:17:26;6.00;;;1.50;;
79702;SDS011;69172;52.352;5.006;2023-07-29T01:20:01;5.90;;;1.40;;
79702;SDS011;69172;52.352;5.006;2023-07-29T01:22:33;7.70;;;1.83;;
79702;SDS011;69172;52.352;5.006;2023-07-29T01:24:59;5.97;;;2.00;;
79702;SDS011;69172;52.352;5.006;2023-07-29T01:27:25;10.90;;;2.15;;
79702;SDS011;69172;52.352;5.006;2023-07-29T01:29:51;6.40;;;1.70;;
79702;SDS011;69172;52.352;5.006;2023-07-29T01:32:26;4.43;;;1.33;;
79702;SDS011;69172;52.352;5.006;2023-07-29T01:35:10;6.43;;;1.40;;
79702;SDS011;69172;52.352;5.006;2023-07-29T01:37:51;3.30;;;1.38;;
79702;SDS011;69172;52.352;5.006;2023-07-29T01:40:20;4.65;;;1.50;;
79702;SDS011;69172;52.352;5.006;2023-07-29T01:42:48;6.82;;;1.63;;
79702;SDS011;69172;52.352;5.006;2023-07-29T01:45:14;5.82;;;1.60;;
79702;SDS011;69172;52.352;5.006;2023-07-29T01:47:40;6.63;;;1.95;;
79702;SDS011;69172;52.352;5.006;2023-07-29T01:50:06;5.50;;;1.45;;
79702;SDS011;69172;52.352;5.006;2023-07-29T01:52:33;5.80;;;1.85;;
79702;SDS011;69172;52.352;5.006;2023-07-29T01:54:58;7.32;;;1.75;;
79702;SDS011;69172;52.352;5.006;2023-07-29T01:57:23;4.00;;;1.23;;
79702;SDS011;69172;52.352;5.006;2023-07-29T01:59:49;7.63;;;1.83;;
79702;SDS011;69172;52.352;5.006;2023-07-29T02:02:15;5.85;;;1.63;;
79702;SDS011;69172;52.352;5.006;2023-07-29T02:04:41;5.22;;;1.40;;
79702;SDS011;69172;52.352;5.006;2023-07-29T02:07:07;4.03;;;1.40;;
79702;SDS011;69172;52.352;5.006;2023-07-29T02:09:32;7.72;;;1.88;;
79702;SDS011;69172;52.352;5.006;2023-07-29T02:11:58;4.28;;;1.58;;
79702;SDS011;69172;52.352;5.006;2023-07-29T02:14:23;5.63;;;1.67;;
79702;SDS011;69172;52.352;5.006;2023-07-29T02:16:49;6.75;;;2.00;;
79702;SDS011;69172;52.352;5.006;2023-07-29T02:19:15;4.82;;;1.50;;
79702;SDS011;69172;52.352;5.006;2023-07-29T02:21:40;7.63;;;2.03;;
79702;SDS011;69172;52.352;5.006;2023-07-29T02:24:08;6.32;;;1.73;;
79702;SDS011;69172;52.352;5.006;2023-07-29T02:26:33;7.00;;;1.77;;
79702;SDS011;69172;52.352;5.006;2023-07-29T02:28:59;8.20;;;1.65;;
79702;SDS011;69172;52.352;5.006;2023-07-29T02:31:24;4.60;;;1.50;;
79702;SDS011;69172;52.352;5.006;2023-07-29T02:33:50;6.53;;;2.05;;
79702;SDS011;69172;52.352;5.006;2023-07-29T02:36:17;8.65;;;2.20;;
79702;SDS011;69172;52.352;5.006;2023-07-29T02:38:43;8.60;;;2.50;;
79702;SDS011;69172;52.352;5.006;2023-07-29T02:41:08;6.45;;;1.92;;
79702;SDS011;69172;52.352;5.006;2023-07-29T02:43:38;10.25;;;2.42;;
79702;SDS011;69172;52.352;5.006;2023-07-29T02:46:05;7.30;;;2.40;;
79702;SDS011;69172;52.352;5.006;2023-07-29T02:48:30;7.82;;;2.10;;
79702;SDS011;69172;52.352;5.006;2023-07-29T02:50:56;6.38;;;2.40;;
79702;SDS011;69172;52.352;5.006;2023-07-29T02:53:21;7.70;;;2.78;;
79702;SDS011;69172;52.352;5.006;2023-07-29T02:55:48;8.43;;;2.22;;
79702;SDS011;69172;52.352;5.006;2023-07-29T02:58:13;13.68;;;2.30;;
79702;SDS011;69172;52.352;5.006;2023-07-29T03:00:40;7.80;;;2.25;;
79702;SDS011;69172;52.352;5.006;2023-07-29T03:03:08;7.30;;;2.15;;
79702;SDS011;69172;52.352;5.006;2023-07-29T03:05:34;6.55;;;2.60;;
79702;SDS011;69172;52.352;5.006;2023-07-29T03:08:05;8.35;;;3.00;;
79702;SDS011;69172;52.352;5.006;2023-07-29T03:10:34;9.45;;;2.63;;
79702;SDS011;69172;52.352;5.006;2023-07-29T03:13:01;8.43;;;2.75;;
79702;SDS011;69172;52.352;5.006;2023-07-29T03:15:27;10.15;;;2.63;;
79702;SDS011;69172;52.352;5.006;2023-07-29T03:17:52;7.75;;;2.50;;
79702;SDS011;69172;52.352;5.006;2023-07-29T03:20:17;9.77;;;2.45;;
79702;SDS011;69172;52.352;5.006;2023-07-29T03:22:43;6.10;;;2.38;;
79702;SDS011;69172;52.352;5.006;2023-07-29T03:25:09;6.65;;;2.30;;
79702;SDS011;69172;52.352;5.006;2023-07-29T03:27:34;9.43;;;2.58;;
79702;SDS011;69172;52.352;5.006;2023-07-29T03:30:02;8.90;;;3.13;;
79702;SDS011;69172;52.352;5.006;2023-07-29T03:32:28;8.50;;;2.85;;
79702;SDS011;69172;52.352;5.006;2023-07-29T03:34:55;6.28;;;2.55;;
79702;SDS011;69172;52.352;5.006;2023-07-29T03:37:20;9.07;;;3.20;;
79702;SDS011;69172;52.352;5.006;2023-07-29T03:39:47;8.35;;;2.90;;
79702;SDS011;69172;52.352;5.006;2023-07-29T03:42:13;8.38;;;2.60;;
79702;SDS011;69172;52.352;5.006;2023-07-29T03:44:38;8.88;;;2.55;;
79702;SDS011;69172;52.352;5.006;2023-07-29T03:47:08;8.90;;;2.65;;
79702;SDS011;69172;52.352;5.006;2023-07-29T03:49:33;10.77;;;2.78;;
79702;SDS011;69172;52.352;5.006;2023-07-29T03:51:58;10.55;;;2.53;;
79702;SDS011;69172;52.352;5.006;2023-07-29T03:54:24;8.35;;;3.15;;
79702;SDS011;69172;52.352;5.006;2023-07-29T03:56:50;10.45;;;2.97;;
79702;SDS011;69172;52.352;5.006;2023-07-29T03:59:15;6.32;;;2.42;;
79702;SDS011;69172;52.352;5.006;2023-07-29T04:01:41;9.75;;;2.88;;
79702;SDS011;69172;52.352;5.006;2023-07-29T04:04:07;8.40;;;2.90;;
79702;SDS011;69172;52.352;5.006;2023-07-29T04:06:32;8.02;;;3.03;;
79702;SDS011;69172;52.352;5.006;2023-07-29T04:08:58;10.13;;;3.03;;
79702;SDS011;69172;52.352;5.006;2023-07-29T04:11:23;8.38;;;2.85;;
79702;SDS011;69172;52.352;5.006;2023-07-29T04:13:49;9.10;;;2.85;;
79702;SDS011;69172;52.352;5.006;2023-07-29T04:16:14;6.13;;;2.22;;
79702;SDS011;69172;52.352;5.006;2023-07-29T04:18:40;8.45;;;2.75;;
79702;SDS011;69172;52.352;5.006;2023-07-29T04:21:08;9.40;;;3.03;;
79702;SDS011;69172;52.352;5.006;2023-07-29T04:23:34;13.50;;;3.08;;
79702;SDS011;69172;52.352;5.006;2023-07-29T04:26:01;10.77;;;3.45;;
79702;SDS011;69172;52.352;5.006;2023-07-29T04:28:26;10.85;;;3.15;;
79702;SDS011;69172;52.352;5.006;2023-07-29T04:30:52;8.40;;;3.05;;
79702;SDS011;69172;52.352;5.006;2023-07-29T04:33:17;7.90;;;2.83;;
79702;SDS011;69172;52.352;5.006;2023-07-29T04:35:42;8.40;;;2.85;;
79702;SDS011;69172;52.352;5.006;2023-07-29T04:38:08;11.38;;;3.33;;
79702;SDS011;69172;52.352;5.006;2023-07-29T04:40:34;10.38;;;2.92;;
79702;SDS011;69172;52.352;5.006;2023-07-29T04:43:01;8.43;;;3.13;;
79702;SDS011;69172;52.352;5.006;2023-07-29T04:45:29;8.65;;;2.88;;
79702;SDS011;69172;52.352;5.006;2023-07-29T04:47:55;9.13;;;2.67;;
79702;SDS011;69172;52.352;5.006;2023-07-29T04:50:21;8.57;;;3.10;;
79702;SDS011;69172;52.352;5.006;2023-07-29T04:52:47;9.57;;;3.20;;
79702;SDS011;69172;52.352;5.006;2023-07-29T04:55:12;10.77;;;3.10;;
79702;SDS011;69172;52.352;5.006;2023-07-29T04:57:38;7.53;;;2.95;;
79702;SDS011;69172;52.352;5.006;2023-07-29T05:00:03;12.70;;;3.33;;
79702;SDS011;69172;52.352;5.006;2023-07-29T05:02:29;7.78;;;3.03;;
79702;SDS011;69172;52.352;5.006;2023-07-29T05:04:54;13.73;;;3.10;;
79702;SDS011;69172;52.352;5.006;2023-07-29T05:07:19;8.63;;;3.20;;
79702;SDS011;69172;52.352;5.006;2023-07-29T05:09:45;10.73;;;3.42;;
79702;SDS011;69172;52.352;5.006;2023-07-29T05:12:10;11.48;;;3.25;;
79702;SDS011;69172;52.352;5.006;2023-07-29T05:14:35;7.68;;;2.50;;
79702;SDS011;69172;52.352;5.006;2023-07-29T05:17:01;7.97;;;3.15;;
79702;SDS011;69172;52.352;5.006;2023-07-29T05:19:26;10.88;;;2.92;;
79702;SDS011;69172;52.352;5.006;2023-07-29T05:21:52;7.88;;;3.10;;
79702;SDS011;69172;52.352;5.006;2023-07-29T05:24:18;7.70;;;3.20;;
79702;SDS011;69172;52.352;5.006;2023-07-29T05:26:43;9.05;;;3.50;;
79702;SDS011;69172;52.352;5.006;2023-07-29T05:29:09;8.82;;;3.25;;
79702;SDS011;69172;52.352;5.006;2023-07-29T05:31:34;8.73;;;3.75;;
79702;SDS011;69172;52.352;5.006;2023-07-29T05:33:59;11.75;;;3.55;;
79702;SDS011;69172;52.352;5.006;2023-07-29T05:36:25;10.82;;;3.78;;
79702;SDS011;69172;52.352;5.006;2023-07-29T05:38:51;17.80;;;3.97;;
79702;SDS011;69172;52.352;5.006;2023-07-29T05:41:17;13.30;;;3.95;;
79702;SDS011;69172;52.352;5.006;2023-07-29T05:43:42;12.50;;;4.28;;
79702;SDS011;69172;52.352;5.006;2023-07-29T05:46:08;13.13;;;4.10;;
79702;SDS011;69172;52.352;5.006;2023-07-29T05:48:36;13.38;;;3.80;;
79702;SDS011;69172;52.352;5.006;2023-07-29T05:51:01;10.88;;;3.72;;
79702;SDS011;69172;52.352;5.006;2023-07-29T05:53:26;8.82;;;3.85;;
79702;SDS011;69172;52.352;5.006;2023-07-29T05:55:52;11.18;;;3.92;;
79702;SDS011;69172;52.352;5.006;2023-07-29T05:58:17;11.32;;;3.97;;
79702;SDS011;69172;52.352;5.006;2023-07-29T06:00:44;11.77;;;4.00;;
79702;SDS011;69172;52.352;5.006;2023-07-29T06:03:09;13.35;;;4.50;;
79702;SDS011;69172;52.352;5.006;2023-07-29T06:05:34;11.63;;;3.95;;
79702;SDS011;69172;52.352;5.006;2023-07-29T06:08:00;12.55;;;3.63;;
79702;SDS011;69172;52.352;5.006;2023-07-29T06:10:25;9.63;;;3.65;;
79702;SDS011;69172;52.352;5.006;2023-07-29T06:12:51;9.98;;;3.58;;
79702;SDS011;69172;52.352;5.006;2023-07-29T06:15:16;9.63;;;3.45;;
79702;SDS011;69172;52.352;5.006;2023-07-29T06:17:41;8.68;;;3.67;;
79702;SDS011;69172;52.352;5.006;2023-07-29T06:20:07;11.07;;;4.15;;
79702;SDS011;69172;52.352;5.006;2023-07-29T06:22:33;12.82;;;3.72;;
79702;SDS011;69172;52.352;5.006;2023-07-29T06:24:58;13.15;;;3.42;;
79702;SDS011;69172;52.352;5.006;2023-07-29T06:27:24;9.77;;;3.67;;
79702;SDS011;69172;52.352;5.006;2023-07-29T06:29:50;9.70;;;3.53;;
79702;SDS011;69172;52.352;5.006;2023-07-29T06:32:16;11.10;;;3.55;;
79702;SDS011;69172;52.352;5.006;2023-07-29T06:34:42;14.23;;;3.10;;
79702;SDS011;69172;52.352;5.006;2023-07-29T06:37:07;10.60;;;3.38;;
79702;SDS011;69172;52.352;5.006;2023-07-29T06:39:33;9.77;;;3.05;;
79702;SDS011;69172;52.352;5.006;2023-07-29T06:41:58;10.60;;;3.15;;
79702;SDS011;69172;52.352;5.006;2023-07-29T06:44:23;10.70;;;3.63;;
79702;SDS011;69172;52.352;5.006;2023-07-29T06:46:49;9.05;;;3.25;;
79702;SDS011;69172;52.352;5.006;2023-07-29T06:49:14;12.48;;;2.92;;
79702;SDS011;69172;52.352;5.006;2023-07-29T06:51:46;10.85;;;3.22;;
79702;SDS011;69172;52.352;5.006;2023-07-29T06:54:11;10.00;;;3.47;;
79702;SDS011;69172;52.352;5.006;2023-07-29T06:56:37;10.00;;;3.60;;
79702;SDS011;69172;52.352;5.006;2023-07-29T06:59:02;10.82;;;3.72;;
79702;SDS011;69172;52.352;5.006;2023-07-29T07:01:28;12.05;;;4.10;;
79702;SDS011;69172;52.352;5.006;2023-07-29T07:03:54;11.40;;;4.28;;
79702;SDS011;69172;52.352;5.006;2023-07-29T07:06:20;14.00;;;4.68;;
79702;SDS011;69172;52.352;5.006;2023-07-29T07:08:47;11.80;;;3.67;;
79702;SDS011;69172;52.352;5.006;2023-07-29T07:11:13;8.65;;;3.78;;
79702;SDS011;69172;52.352;5.006;2023-07-29T07:13:39;10.25;;;3.83;;
79702;SDS011;69172;52.352;5.006;2023-07-29T07:16:06;10.88;;;4.07;;
79702;SDS011;69172;52.352;5.006;2023-07-29T07:18:33;10.18;;;3.50;;
79702;SDS011;69172;52.352;5.006;2023-07-29T07:20:58;10.45;;;3.30;;
79702;SDS011;69172;52.352;5.006;2023-07-29T07:23:24;10.23;;;3.35;;
79702;SDS011;69172;52.352;5.006;2023-07-29T07:25:49;8.10;;;3.08;;
79702;SDS011;69172;52.352;5.006;2023-07-29T07:28:14;7.90;;;2.90;;
79702;SDS011;69172;52.352;5.006;2023-07-29T07:30:40;9.80;;;3.03;;
79702;SDS011;69172;52.352;5.006;2023-07-29T07:33:07;14.85;;;3.25;;
79702;SDS011;69172;52.352;5.006;2023-07-29T07:35:33;8.60;;;2.97;;
79702;SDS011;69172;52.352;5.006;2023-07-29T07:37:58;9.50;;;3.20;;
79702;SDS011;69172;52.352;5.006;2023-07-29T07:40:27;9.95;;;3.20;;
79702;SDS011;69172;52.352;5.006;2023-07-29T07:42:53;9.82;;;3.03;;
79702;SDS011;69172;52.352;5.006;2023-07-29T07:45:19;9.38;;;2.50;;
79702;SDS011;69172;52.352;5.006;2023-07-29T07:47:44;8.18;;;2.95;;
79702;SDS011;69172;52.352;5.006;2023-07-29T07:50:10;9.15;;;2.38;;
79702;SDS011;69172;52.352;5.006;2023-07-29T07:52:35;6.45;;;2.10;;
79702;SDS011;69172;52.352;5.006;2023-07-29T07:55:00;9.02;;;2.65;;
79702;SDS011;69172;52.352;5.006;2023-07-29T07:57:26;7.40;;;2.50;;
79702;SDS011;69172;52.352;5.006;2023-07-29T07:59:51;12.65;;;3.35;;
79702;SDS011;69172;52.352;5.006;2023-07-29T08:02:17;12.50;;;3.35;;
79702;SDS011;69172;52.352;5.006;2023-07-29T08:04:43;8.77;;;2.95;;
79702;SDS011;69172;52.352;5.006;2023-07-29T08:07:08;8.70;;;2.30;;
79702;SDS011;69172;52.352;5.006;2023-07-29T08:09:35;9.45;;;3.30;;
79702;SDS011;69172;52.352;5.006;2023-07-29T08:12:00;9.02;;;3.13;;
79702;SDS011;69172;52.352;5.006;2023-07-29T08:14:26;9.50;;;3.13;;
79702;SDS011;69172;52.352;5.006;2023-07-29T08:16:52;8.48;;;2.70;;
79702;SDS011;69172;52.352;5.006;2023-07-29T08:19:17;7.32;;;1.90;;
79702;SDS011;69172;52.352;5.006;2023-07-29T08:21:42;6.97;;;2.40;;
79702;SDS011;69172;52.352;5.006;2023-07-29T08:24:08;10.23;;;2.15;;
79702;SDS011;69172;52.352;5.006;2023-07-29T08:26:33;7.32;;;1.70;;
79702;SDS011;69172;52.352;5.006;2023-07-29T08:28:59;9.40;;;2.35;;
79702;SDS011;69172;52.352;5.006;2023-07-29T08:31:24;6.85;;;1.95;;
79702;SDS011;69172;52.352;5.006;2023-07-29T08:33:49;5.45;;;1.42;;
79702;SDS011;69172;52.352;5.006;2023-07-29T08:36:15;11.27;;;2.00;;
79702;SDS011;69172;52.352;5.006;2023-07-29T08:38:41;7.00;;;1.50;;
79702;SDS011;69172;52.352;5.006;2023-07-29T08:41:13;7.60;;;2.13;;
79702;SDS011;69172;52.352;5.006;2023-07-29T08:43:49;9.02;;;1.63;;
79702;SDS011;69172;52.352;5.006;2023-07-29T08:46:34;8.70;;;1.70;;
79702;SDS011;69172;52.352;5.006;2023-07-29T08:49:00;5.13;;;1.70;;
79702;SDS011;69172;52.352;5.006;2023-07-29T08:51:27;8.57;;;1.75;;
79702;SDS011;69172;52.352;5.006;2023-07-29T08:53:54;7.72;;;2.08;;
79702;SDS011;69172;52.352;5.006;2023-07-29T08:56:22;6.00;;;1.65;;
79702;SDS011;69172;52.352;5.006;2023-07-29T08:58:50;6.75;;;1.80;;
79702;SDS011;69172;52.352;5.006;2023-07-29T09:01:16;7.47;;;1.67;;
79702;SDS011;69172;52.352;5.006;2023-07-29T09:03:42;6.30;;;1.77;;
79702;SDS011;69172;52.352;5.006;2023-07-29T09:06:07;8.02;;;1.90;;
79702;SDS011;69172;52.352;5.006;2023-07-29T09:08:35;6.22;;;1.90;;
79702;SDS011;69172;52.352;5.006;2023-07-29T09:11:01;7.78;;;2.22;;
79702;SDS011;69172;52.352;5.006;2023-07-29T09:13:27;7.78;;;2.00;;
79702;SDS011;69172;52.352;5.006;2023-07-29T09:15:54;9.18;;;2.15;;
79702;SDS011;69172;52.352;5.006;2023-07-29T09:18:22;8.15;;;2.53;;
79702;SDS011;69172;52.352;5.006;2023-07-29T09:20:48;10.50;;;2.30;;
79702;SDS011;69172;52.352;5.006;2023-07-29T09:23:14;8.15;;;2.13;;
79702;SDS011;69172;52.352;5.006;2023-07-29T09:25:40;9.23;;;2.30;;
79702;SDS011;69172;52.352;5.006;2023-07-29T09:28:13;11.88;;;2.55;;
79702;SDS011;69172;52.352;5.006;2023-07-29T09:30:46;10.77;;;2.70;;
79702;SDS011;69172;52.352;5.006;2023-07-29T09:33:11;11.77;;;2.53;;
79702;SDS011;69172;52.352;5.006;2023-07-29T09:35:37;9.00;;;2.60;;
79702;SDS011;69172;52.352;5.006;2023-07-29T09:38:04;9.77;;;3.25;;
79702;SDS011;69172;52.352;5.006;2023-07-29T09:40:40;9.88;;;2.30;;
79702;SDS011;69172;52.352;5.006;2023-07-29T09:43:07;7.97;;;2.60;;
79702;SDS011;69172;52.352;5.006;2023-07-29T09:45:34;8.30;;;2.40;;
79702;SDS011;69172;52.352;5.006;2023-07-29T09:48:00;8.98;;;3.00;;
79702;SDS011;69172;52.352;5.006;2023-07-29T09:50:27;7.20;;;2.03;;
79702;SDS011;69172;52.352;5.006;2023-07-29T09:52:54;7.18;;;1.92;;
79702;SDS011;69172;52.352;5.006;2023-07-29T09:55:25;7.00;;;2.28;;
79702;SDS011;69172;52.352;5.006;2023-07-29T09:57:58;7.90;;;2.38;;
79702;SDS011;69172;52.352;5.006;2023-07-29T10:00:27;7.97;;;2.50;;
79702;SDS011;69172;52.352;5.006;2023-07-29T10:02:53;6.93;;;1.83;;
79702;SDS011;69172;52.352;5.006;2023-07-29T10:05:19;7.75;;;1.98;;
79702;SDS011;69172;52.352;5.006;2023-07-29T10:07:46;7.13;;;1.85;;
79702;SDS011;69172;52.352;5.006;2023-07-29T10:10:14;7.20;;;1.60;;
79702;SDS011;69172;52.352;5.006;2023-07-29T10:12:40;5.10;;;1.50;;
79702;SDS011;69172;52.352;5.006;2023-07-29T10:15:08;8.57;;;1.70;;
79702;SDS011;69172;52.352;5.006;2023-07-29T10:17:35;5.40;;;1.73;;
79702;SDS011;69172;52.352;5.006;2023-07-29T10:20:05;6.22;;;2.08;;
79702;SDS011;69172;52.352;5.006;2023-07-29T10:22:33;7.82;;;2.35;;
79702;SDS011;69172;52.352;5.006;2023-07-29T10:25:07;7.75;;;1.80;;
79702;SDS011;69172;52.352;5.006;2023-07-29T10:27:39;9.50;;;2.10;;
79702;SDS011;69172;52.352;5.006;2023-07-29T10:30:09;7.15;;;1.83;;
79702;SDS011;69172;52.352;5.006;2023-07-29T10:32:37;9.38;;;1.75;;
79702;SDS011;69172;52.352;5.006;2023-07-29T10:35:04;9.68;;;2.10;;
79702;SDS011;69172;52.352;5.006;2023-07-29T10:37:31;7.03;;;2.25;;
79702;SDS011;69172;52.352;5.006;2023-07-29T10:39:57;7.80;;;1.95;;
79702;SDS011;69172;52.352;5.006;2023-07-29T10:42:23;9.95;;;2.40;;
79702;SDS011;69172;52.352;5.006;2023-07-29T10:44:50;7.72;;;1.98;;
79702;SDS011;69172;52.352;5.006;2023-07-29T10:49:53;6.15;;;1.80;;
79702;SDS011;69172;52.352;5.006;2023-07-29T10:52:30;8.55;;;2.20;;
79702;SDS011;69172;52.352;5.006;2023-07-29T10:55:02;7.63;;;2.22;;
79702;SDS011;69172;52.352;5.006;2023-07-29T10:57:38;6.32;;;1.92;;
79702;SDS011;69172;52.352;5.006;2023-07-29T11:00:07;7.05;;;1.75;;
79702;SDS011;69172;52.352;5.006;2023-07-29T11:02:36;9.55;;;1.90;;
79702;SDS011;69172;52.352;5.006;2023-07-29T11:05:07;6.88;;;1.70;;
79702;SDS011;69172;52.352;5.006;2023-07-29T11:07:44;7.95;;;1.70;;
79702;SDS011;69172;52.352;5.006;2023-07-29T11:10:13;5.25;;;1.80;;
79702;SDS011;69172;52.352;5.006;2023-07-29T11:18:03;8.48;;;1.90;;
79702;SDS011;69172;52.352;5.006;2023-07-29T11:20:29;7.47;;;1.98;;
79702;SDS011;69172;52.352;5.006;2023-07-29T11:22:56;8.75;;;2.13;;
79702;SDS011;69172;52.352;5.006;2023-07-29T11:25:24;5.70;;;1.98;;
79702;SDS011;69172;52.352;5.006;2023-07-29T11:27:54;6.97;;;1.80;;
79702;SDS011;69172;52.352;5.006;2023-07-29T11:30:21;8.27;;;2.00;;
79702;SDS011;69172;52.352;5.006;2023-07-29T11:32:48;12.32;;;2.45;;
79702;SDS011;69172;52.352;5.006;2023-07-29T11:35:15;7.72;;;2.00;;
79702;SDS011;69172;52.352;5.006;2023-07-29T11:37:55;7.65;;;1.90;;
79702;SDS011;69172;52.352;5.006;2023-07-29T11:40:23;5.88;;;1.70;;
79702;SDS011;69172;52.352;5.006;2023-07-29T11:42:50;4.40;;;1.30;;
79702;SDS011;69172;52.352;5.006;2023-07-29T11:45:17;9.90;;;2.22;;
79702;SDS011;69172;52.352;5.006;2023-07-29T11:47:44;6.57;;;2.72;;
79702;SDS011;69172;52.352;5.006;2023-07-29T11:50:11;6.25;;;2.25;;
79702;SDS011;69172;52.352;5.006;2023-07-29T11:52:41;7.18;;;2.00;;
79702;SDS011;69172;52.352;5.006;2023-07-29T11:55:07;6.53;;;1.42;;
79702;SDS011;69172;52.352;5.006;2023-07-29T11:57:34;7.20;;;1.90;;
79702;SDS011;69172;52.352;5.006;2023-07-29T12:00:04;7.18;;;1.42;;
79702;SDS011;69172;52.352;5.006;2023-07-29T12:02:31;4.07;;;1.30;;
79702;SDS011;69172;52.352;5.006;2023-07-29T12:04:57;6.38;;;1.70;;
79702;SDS011;69172;52.352;5.006;2023-07-29T12:07:26;3.58;;;1.45;;
79702;SDS011;69172;52.352;5.006;2023-07-29T12:09:53;4.05;;;1.30;;
79702;SDS011;69172;52.352;5.006;2023-07-29T12:12:19;4.53;;;1.27;;
79702;SDS011;69172;52.352;5.006;2023-07-29T12:14:47;7.90;;;2.40;;
79702;SDS011;69172;52.352;5.006;2023-07-29T12:17:14;6.20;;;2.25;;
79702;SDS011;69172;52.352;5.006;2023-07-29T12:19:40;4.72;;;2.20;;
79702;SDS011;69172;52.352;5.006;2023-07-29T12:22:08;3.85;;;1.40;;
79702;SDS011;69172;52.352;5.006;2023-07-29T12:24:40;3.65;;;1.60;;
79702;SDS011;69172;52.352;5.006;2023-07-29T12:27:09;2.50;;;1.23;;
79702;SDS011;69172;52.352;5.006;2023-07-29T12:29:39;2.78;;;1.23;;
79702;SDS011;69172;52.352;5.006;2023-07-29T12:32:06;1.75;;;0.82;;
79702;SDS011;69172;52.352;5.006;2023-07-29T12:34:32;3.63;;;1.58;;
79702;SDS011;69172;52.352;5.006;2023-07-29T12:36:58;5.82;;;2.00;;
79702;SDS011;69172;52.352;5.006;2023-07-29T12:39:25;3.08;;;1.30;;
79702;SDS011;69172;52.352;5.006;2023-07-29T12:41:53;5.50;;;2.10;;
79702;SDS011;69172;52.352;5.006;2023-07-29T12:44:20;4.75;;;1.20;;
79702;SDS011;69172;52.352;5.006;2023-07-29T12:46:45;5.22;;;1.23;;
79702;SDS011;69172;52.352;5.006;2023-07-29T12:49:11;4.95;;;1.30;;
79702;SDS011;69172;52.352;5.006;2023-07-29T12:51:38;2.90;;;1.10;;
79702;SDS011;69172;52.352;5.006;2023-07-29T12:54:03;3.80;;;1.50;;
79702;SDS011;69172;52.352;5.006;2023-07-29T12:56:30;2.17;;;1.00;;
79702;SDS011;69172;52.352;5.006;2023-07-29T12:58:56;4.10;;;1.33;;
79702;SDS011;69172;52.352;5.006;2023-07-29T13:01:23;4.53;;;1.02;;
79702;SDS011;69172;52.352;5.006;2023-07-29T13:03:49;6.75;;;1.02;;
79702;SDS011;69172;52.352;5.006;2023-07-29T13:06:14;5.28;;;1.20;;
79702;SDS011;69172;52.352;5.006;2023-07-29T13:08:40;3.28;;;1.23;;
79702;SDS011;69172;52.352;5.006;2023-07-29T13:11:06;5.40;;;1.23;;
79702;SDS011;69172;52.352;5.006;2023-07-29T13:13:33;2.35;;;1.00;;
79702;SDS011;69172;52.352;5.006;2023-07-29T13:15:58;5.78;;;1.20;;
79702;SDS011;69172;52.352;5.006;2023-07-29T13:18:24;5.72;;;1.45;;
79702;SDS011;69172;52.352;5.006;2023-07-29T13:20:49;3.30;;;1.25;;
79702;SDS011;69172;52.352;5.006;2023-07-29T13:23:15;3.80;;;1.27;;
79702;SDS011;69172;52.352;5.006;2023-07-29T13:25:40;3.80;;;1.27;;
79702;SDS011;69172;52.352;5.006;2023-07-29T13:28:06;2.92;;;1.17;;
79702;SDS011;69172;52.352;5.006;2023-07-29T13:30:32;6.47;;;1.23;;
79702;SDS011;69172;52.352;5.006;2023-07-29T13:32:58;3.47;;;1.00;;
79702;SDS011;69172;52.352;5.006;2023-07-29T13:35:24;6.03;;;1.23;;
79702;SDS011;69172;52.352;5.006;2023-07-29T13:37:49;3.22;;;0.90;;
79702;SDS011;69172;52.352;5.006;2023-07-29T13:40:15;5.07;;;1.13;;
79702;SDS011;69172;52.352;5.006;2023-07-29T13:42:40;2.58;;;1.10;;
79702;SDS011;69172;52.352;5.006;2023-07-29T13:45:06;4.60;;;1.10;;
79702;SDS011;69172;52.352;5.006;2023-07-29T13:47:34;7.70;;;2.35;;
79702;SDS011;69172;52.352;5.006;2023-07-29T13:49:59;5.47;;;1.55;;
79702;SDS011;69172;52.352;5.006;2023-07-29T13:52:25;4.60;;;1.50;;
79702;SDS011;69172;52.352;5.006;2023-07-29T13:54:51;3.15;;;1.08;;
79702;SDS011;69172;52.352;5.006;2023-07-29T13:57:16;6.05;;;1.10;;
79702;SDS011;69172;52.352;5.006;2023-07-29T13:59:44;4.05;;;1.20;;
79702;SDS011;69172;52.352;5.006;2023-07-29T14:02:09;3.83;;;1.13;;
79702;SDS011;69172;52.352;5.006;2023-07-29T14:04:35;5.38;;;1.20;;
79702;SDS011;69172;52.352;5.006;2023-07-29T14:07:01;4.93;;;1.20;;
79702;SDS011;69172;52.352;5.006;2023-07-29T14:09:26;3.50;;;1.25;;
79702;SDS011;69172;52.352;5.006;2023-07-29T14:11:53;4.47;;;1.00;;
79702;SDS011;69172;52.352;5.006;2023-07-29T14:14:20;3.20;;;1.02;;
79702;SDS011;69172;52.352;5.006;2023-07-29T14:16:46;4.80;;;1.08;;
79702;SDS011;69172;52.352;5.006;2023-07-29T14:19:12;4.60;;;1.17;;
79702;SDS011;69172;52.352;5.006;2023-07-29T14:21:38;4.43;;;1.05;;
79702;SDS011;69172;52.352;5.006;2023-07-29T14:24:03;3.95;;;1.27;;
79702;SDS011;69172;52.352;5.006;2023-07-29T14:26:29;2.33;;;1.05;;
79702;SDS011;69172;52.352;5.006;2023-07-29T14:28:55;4.50;;;1.20;;
79702;SDS011;69172;52.352;5.006;2023-07-29T14:31:22;5.13;;;1.13;;
79702;SDS011;69172;52.352;5.006;2023-07-29T14:33:49;3.85;;;1.17;;
79702;SDS011;69172;52.352;5.006;2023-07-29T14:36:15;3.70;;;1.08;;
79702;SDS011;69172;52.352;5.006;2023-07-29T14:38:43;3.72;;;1.30;;
79702;SDS011;69172;52.352;5.006;2023-07-29T14:41:10;4.60;;;1.50;;
79702;SDS011;69172;52.352;5.006;2023-07-29T14:43:35;5.70;;;1.15;;
79702;SDS011;69172;52.352;5.006;2023-07-29T14:46:01;4.80;;;1.50;;
79702;SDS011;69172;52.352;5.006;2023-07-29T14:48:27;4.70;;;1.60;;
79702;SDS011;69172;52.352;5.006;2023-07-29T14:50:54;3.55;;;1.30;;
79702;SDS011;69172;52.352;5.006;2023-07-29T14:53:19;5.13;;;1.52;;
79702;SDS011;69172;52.352;5.006;2023-07-29T14:55:45;6.38;;;1.50;;
79702;SDS011;69172;52.352;5.006;2023-07-29T14:58:11;4.22;;;1.70;;